Time;durP1;ratioP1;P1;durP2;ratioP2;P2;SDS_P1;SDS_P2;PMS_P1;PMS_P2;Temp;Humidity;BMP_temperature;BMP_pressure;BME280_temperature;BME280_humidity;BME280_pressure;Samples;Min_cycle;Max_cycle;Signal;HPM_P1;HPM_P2
2023/05/04 00:02:21;;;;;;;;;;;;;;;11.53;100.00;96518.72;5048551;28;19954;-84
2023/05/04 00:04:48;;;;;;;;;;;;;;;11.58;100.00;96518.00;5009920;28;19980;-84
2023/05/04 00:07:15;;;;;;;;;;;;;;;11.57;100.00;96519.88;5012733;28;19984;-84
2023/05/04 00:09:41;;;;;;;;;;;;;;;11.59;100.00;96525.91;5031175;28;19969;-84
2023/05/04 00:12:08;;;;;;;;;;;;;;;11.59;100.00;96517.78;5041712;28;19958;-84
2023/05/04 00:14:35;;;;;;;;;;;;;;;11.49;100.00;96516.69;5010670;28;20024;-84
2023/05/04 00:17:05;;;;;;;;;;;;;;;11.42;100.00;96511.41;5008959;28;19956;-84
2023/05/04 00:19:33;;;;;;;;;;;;;;;11.40;100.00;96513.50;5007432;28;19967;-84
2023/05/04 00:22:00;;;;;;;;;;;;;;;11.37;100.00;96519.38;5012572;28;20002;-84
2023/05/04 00:24:27;;;;;;;;;;;;;;;11.33;100.00;96515.47;5013753;28;19952;-84
2023/05/04 00:26:54;;;;;;;;;;;;;;;11.24;100.00;96511.47;5042403;28;19964;-84
2023/05/04 00:29:21;;;;;;;;;;;;;;;11.14;100.00;96509.34;5012875;28;19950;-84
2023/05/04 00:31:47;;;;;;;;;;;;;;;11.03;100.00;96512.81;5014811;28;19985;-84
2023/05/04 00:34:14;;;;;;;;;;;;;;;10.96;100.00;96514.78;5013046;28;19948;-84
2023/05/04 00:36:42;;;;;;;;;;;;;;;10.83;100.00;96504.97;5007261;28;19953;-84
2023/05/04 00:39:09;;;;;;;;;;;;;;;10.74;100.00;96502.81;5043270;28;20022;-84
2023/05/04 00:41:37;;;;;;;;;;;;;;;10.74;100.00;96502.81;5026691;28;19999;-84
2023/05/04 00:44:04;;;;;;;;;;;;;;;10.74;100.00;96503.63;5011306;28;19960;-84
2023/05/04 00:46:32;;;;;;;;;;;;;;;10.79;100.00;96495.69;5015434;28;19955;-84
2023/05/04 00:48:59;;;;;;;;;;;;;;;10.74;100.00;96495.53;5035602;28;19957;-84
2023/05/04 00:51:27;;;;;;;;;;;;;;;10.71;100.00;96492.47;5014272;28;19956;-84
2023/05/04 00:53:55;;;;;;;;;;;;;;;10.66;100.00;96501.25;5047594;28;19953;-84
2023/05/04 00:56:23;;;;;;;;;;;;;;;10.63;100.00;96498.19;5014576;28;19954;-84
2023/05/04 00:58:53;;;;;;;;;;;;;;;10.59;100.00;96498.63;5013156;28;19951;-84
2023/05/04 01:01:20;;;;;;;;;;;;;;;10.52;100.00;96503.28;5013778;28;19953;-84
2023/05/04 01:03:47;;;;;;;;;;;;;;;10.52;100.00;96505.16;5032755;28;19997;-84
2023/05/04 01:06:19;;;;;;;;;;;;;;;10.51;100.00;96504.34;5018227;28;19979;-84
2023/05/04 01:08:49;;;;;;;;;;;;;;;10.53;100.00;96499.53;5024044;28;19970;-84
2023/05/04 01:11:20;;;;;;;;;;;;;;;10.59;100.00;96505.91;5014912;28;19951;-84
2023/05/04 01:13:47;;;;;;;;;;;;;;;10.63;100.00;96500.88;5025346;28;20020;-84
2023/05/04 01:16:14;;;;;;;;;;;;;;;10.62;100.00;96508.16;5016585;28;19953;-84
2023/05/04 01:18:42;;;;;;;;;;;;;;;10.60;100.00;96510.25;5016210;28;19953;-84
2023/05/04 01:21:09;;;;;;;;;;;;;;;10.50;100.00;96508.09;5031407;28;19956;-84
2023/05/04 01:23:37;;;;;;;;;;;;;;;10.41;100.00;96514.84;5012859;28;19957;-84
2023/05/04 01:26:07;;;;;;;;;;;;;;;10.37;100.00;96510.94;5013107;28;19957;-84
2023/05/04 01:28:37;;;;;;;;;;;;;;;10.39;100.00;96516.09;5015656;28;20010;-84
2023/05/04 01:31:06;;;;;;;;;;;;;;;10.40;100.00;96520.44;5013931;28;19951;-84
2023/05/04 01:33:32;;;;;;;;;;;;;;;10.36;100.00;96519.25;5010733;28;19960;-84
2023/05/04 01:35:59;;;;;;;;;;;;;;;10.34;100.00;96522.19;5006193;28;19953;-84
2023/05/04 01:38:26;;;;;;;;;;;;;;;10.32;100.00;96520.75;5011939;28;19953;-84
2023/05/04 01:40:55;;;;;;;;;;;;;;;10.31;100.00;96525.31;5026268;28;19963;-84
2023/05/04 01:43:23;;;;;;;;;;;;;;;10.28;100.00;96520.38;5029888;28;19949;-84
2023/05/04 01:45:50;;;;;;;;;;;;;;;10.20;100.00;96518.81;5015608;28;19953;-84
2023/05/04 01:48:16;;;;;;;;;;;;;;;10.23;100.00;96531.84;5047742;28;19956;-84
2023/05/04 01:50:43;;;;;;;;;;;;;;;10.26;100.00;96525.19;5022000;28;19953;-84
2023/05/04 01:53:10;;;;;;;;;;;;;;;10.24;100.00;96540.75;5011828;28;19950;-84
2023/05/04 01:55:37;;;;;;;;;;;;;;;10.21;100.00;96538.50;5025958;28;19957;-84
2023/05/04 01:58:05;;;;;;;;;;;;;;;10.19;100.00;96537.91;5028335;28;20030;-84
2023/05/04 02:00:33;;;;;;;;;;;;;;;10.12;100.00;96537.13;5012103;28;19976;-84
2023/05/04 02:03:01;;;;;;;;;;;;;;;10.06;100.00;96544.22;5012358;28;19997;-84
2023/05/04 02:05:28;;;;;;;;;;;;;;;10.01;100.00;96541.38;5046614;28;19972;-84
2023/05/04 02:07:54;;;;;;;;;;;;;;;9.94;100.00;96532.53;5031915;28;19954;-84
2023/05/04 02:10:21;;;;;;;;;;;;;;;9.91;100.00;96540.22;5014819;28;19949;-84
2023/05/04 02:12:48;;;;;;;;;;;;;;;9.82;100.00;96535.09;5026134;28;19963;-84
2023/05/04 02:15:16;;;;;;;;;;;;;;;9.75;100.00;96545.13;5011085;28;19953;-84
2023/05/04 02:17:43;;;;;;;;;;;;;;;9.69;100.00;96537.94;5009562;28;19937;-84
2023/05/04 02:20:11;;;;;;;;;;;;;;;9.70;100.00;96539.56;5012427;28;19973;-84
2023/05/04 02:22:38;;;;;;;;;;;;;;;9.60;100.00;96535.72;5008508;28;19951;-84
2023/05/04 02:25:06;;;;;;;;;;;;;;;9.56;100.00;96531.81;5051072;28;20018;-84
2023/05/04 02:27:33;;;;;;;;;;;;;;;9.58;100.00;96532.41;5005049;28;19953;-83
2023/05/04 02:29:59;;;;;;;;;;;;;;;9.54;100.00;96537.41;5011841;28;19952;-84
2023/05/04 02:32:27;;;;;;;;;;;;;;;9.51;100.00;96539.72;5012323;28;19954;-84
2023/05/04 02:34:54;;;;;;;;;;;;;;;9.45;100.00;96525.25;5014108;28;19958;-84
2023/05/04 02:37:21;;;;;;;;;;;;;;;9.46;100.00;96530.41;5032789;28;19954;-84
2023/05/04 02:39:48;;;;;;;;;;;;;;;9.52;100.00;96530.59;5028670;28;19967;-84
2023/05/04 02:42:15;;;;;;;;;;;;;;;9.50;100.00;96530.81;5013561;28;19953;-84
2023/05/04 02:44:42;;;;;;;;;;;;;;;9.51;100.00;96535.16;5022641;28;19954;-84
2023/05/04 02:47:09;;;;;;;;;;;;;;;9.49;100.00;96531.84;5013606;28;19950;-84
2023/05/04 02:49:37;;;;;;;;;;;;;;;9.47;100.00;96528.56;5014044;28;19988;-84
2023/05/04 02:52:03;;;;;;;;;;;;;;;9.46;100.00;96524.19;5012141;28;19949;-84
2023/05/04 02:54:30;;;;;;;;;;;;;;;9.45;100.00;96525.25;5012043;28;19951;-84
2023/05/04 02:56:57;;;;;;;;;;;;;;;9.47;100.00;96531.25;5011780;28;19974;-84
2023/05/04 02:59:24;;;;;;;;;;;;;;;9.44;100.00;96519.03;5013280;28;19960;-84
2023/05/04 03:01:51;;;;;;;;;;;;;;;9.47;100.00;96524.00;5009087;28;19953;-84
2023/05/04 03:04:17;;;;;;;;;;;;;;;9.47;100.00;96520.47;5046752;28;19971;-84
2023/05/04 03:06:46;;;;;;;;;;;;;;;9.42;100.00;96525.69;5006764;28;19979;-84
2023/05/04 03:09:13;;;;;;;;;;;;;;;9.38;100.00;96525.28;5005505;28;19967;-84
2023/05/04 03:11:40;;;;;;;;;;;;;;;9.38;100.00;96522.59;5003826;28;19958;-84
2023/05/04 03:14:07;;;;;;;;;;;;;;;9.32;100.00;96518.09;5011696;28;19953;-84
2023/05/04 03:16:34;;;;;;;;;;;;;;;9.23;100.00;96526.66;5009511;28;19957;-84
2023/05/04 03:19:03;;;;;;;;;;;;;;;9.11;100.00;96519.25;5009374;28;19956;-84
2023/05/04 03:21:29;;;;;;;;;;;;;;;9.12;100.00;96520.09;5011553;28;19968;-84
2023/05/04 03:23:58;;;;;;;;;;;;;;;9.15;100.00;96513.44;5009283;28;19961;-84
2023/05/04 03:26:25;;;;;;;;;;;;;;;9.16;100.00;96515.94;5005074;28;19957;-84
2023/05/04 03:28:52;;;;;;;;;;;;;;;9.02;100.00;96520.53;5008528;28;19950;-84
2023/05/04 03:31:19;;;;;;;;;;;;;;;8.99;100.00;96518.31;5010950;28;19951;-84
2023/05/04 03:33:49;;;;;;;;;;;;;;;8.99;100.00;96518.31;5041285;28;19955;-84
2023/05/04 03:36:17;;;;;;;;;;;;;;;9.04;100.00;96518.47;5038491;28;19947;-84
2023/05/04 03:38:45;;;;;;;;;;;;;;;9.11;100.00;96513.88;5008997;28;19975;-84
2023/05/04 03:41:13;;;;;;;;;;;;;;;9.16;100.00;96509.72;5041509;28;19968;-84
2023/05/04 03:43:40;;;;;;;;;;;;;;;9.17;100.00;96508.66;5009105;28;19959;-84
2023/05/04 03:46:07;;;;;;;;;;;;;;;9.13;100.00;96504.75;5010372;28;19960;-84
2023/05/04 03:48:33;;;;;;;;;;;;;;;9.14;100.00;96509.09;5005010;28;19952;-84
2023/05/04 03:51:00;;;;;;;;;;;;;;;9.12;100.00;96506.63;4998638;28;19961;-84
2023/05/04 03:53:27;;;;;;;;;;;;;;;9.10;100.00;96506.03;5008773;28;19952;-84
2023/05/04 03:55:54;;;;;;;;;;;;;;;9.11;100.00;96503.09;5043228;28;19960;-83
2023/05/04 03:58:23;;;;;;;;;;;;;;;9.08;100.00;96503.53;5027767;28;19985;-84
2023/05/04 04:00:50;;;;;;;;;;;;;;;9.05;100.00;96509.34;5039365;28;19970;-83
2023/05/04 04:03:17;;;;;;;;;;;;;;;9.01;100.00;96510.84;5002687;28;20376;-84
2023/05/04 04:05:43;;;;;;;;;;;;;;;8.88;100.00;96518.97;5016851;28;19967;-84
2023/05/04 04:08:10;;;;;;;;;;;;;;;8.81;100.00;96522.75;5008957;28;19998;-84
2023/05/04 04:10:37;;;;;;;;;;;;;;;8.79;100.00;96528.34;5002628;28;20047;-84
2023/05/04 04:13:04;;;;;;;;;;;;;;;8.76;100.00;96522.59;5011139;28;19959;-84
2023/05/04 04:15:32;;;;;;;;;;;;;;;8.72;100.00;96520.31;5000088;28;19954;-84
2023/05/04 04:17:59;;;;;;;;;;;;;;;8.64;100.00;96508.97;5001851;28;19957;-84
2023/05/04 04:20:26;;;;;;;;;;;;;;;8.59;100.00;96514.16;4999599;28;19965;-84
2023/05/04 04:22:53;;;;;;;;;;;;;;;8.58;100.00;96512.53;5045408;28;19955;-84
2023/05/04 04:25:20;;;;;;;;;;;;;;;8.58;100.00;96523.28;5009514;28;19949;-84
2023/05/04 04:27:47;;;;;;;;;;;;;;;8.56;100.00;96528.88;5005672;28;19954;-84
2023/05/04 04:30:14;;;;;;;;;;;;;;;8.54;100.00;96524.72;5002656;28;19949;-84
2023/05/04 04:32:42;;;;;;;;;;;;;;;8.53;100.00;96531.97;5013437;28;19957;-83
2023/05/04 04:35:09;;;;;;;;;;;;;;;8.58;100.00;96531.34;5013052;28;19951;-84
2023/05/04 04:37:36;;;;;;;;;;;;;;;8.60;100.00;96531.94;4995359;28;19951;-84
2023/05/04 04:40:06;;;;;;;;;;;;;;;8.64;100.00;96533.19;5013697;28;19951;-84
2023/05/04 04:42:33;;;;;;;;;;;;;;;8.60;100.00;96531.94;5010035;28;20048;-83
2023/05/04 04:45:00;;;;;;;;;;;;;;;8.57;100.00;96541.28;5004859;28;19960;-84
2023/05/04 04:47:26;;;;;;;;;;;;;;;8.59;100.00;96541.09;5010042;28;19952;-84
2023/05/04 04:49:54;;;;;;;;;;;;;;;8.67;100.00;96532.78;5013171;28;19962;-84
2023/05/04 04:52:22;;;;;;;;;;;;;;;8.71;100.00;96537.50;5044856;28;19954;-84
2023/05/04 04:54:49;;;;;;;;;;;;;;;8.72;100.00;96541.84;5044145;28;19953;-84
2023/05/04 04:57:16;;;;;;;;;;;;;;;8.70;100.00;96535.84;5006387;28;19967;-84
2023/05/04 04:59:43;;;;;;;;;;;;;;;8.65;100.00;96543.75;5012898;28;19959;-83
2023/05/04 05:02:11;;;;;;;;;;;;;;;8.54;100.00;96543.56;5042947;28;19959;-84
2023/05/04 05:04:39;;;;;;;;;;;;;;;8.43;100.00;96546.91;5014478;28;19954;-84
2023/05/04 05:07:09;;;;;;;;;;;;;;;8.39;100.00;96551.91;5044798;28;19975;-84
2023/05/04 05:09:36;;;;;;;;;;;;;;;8.46;100.00;96557.25;5040935;28;19966;-84
2023/05/04 05:12:04;;;;;;;;;;;;;;;8.47;100.00;96556.22;5008035;28;19969;-84
2023/05/04 05:14:31;;;;;;;;;;;;;;;8.49;100.00;96562.22;5045779;28;20003;-84
2023/05/04 05:16:58;;;;;;;;;;;;;;;8.55;100.00;96567.59;5011576;28;20003;-84
2023/05/04 05:19:25;;;;;;;;;;;;;;;8.55;100.00;96564.06;5012175;28;20066;-84
2023/05/04 05:21:52;;;;;;;;;;;;;;;8.57;100.00;96564.69;5012810;28;19971;-84
2023/05/04 05:24:20;;;;;;;;;;;;;;;8.63;100.00;96564.66;5012005;28;19950;-84
2023/05/04 05:26:47;;;;;;;;;;;;;;;8.64;100.00;96565.50;5021581;28;19953;-84
2023/05/04 05:29:14;;;;;;;;;;;;;;;8.65;100.00;96578.75;5011186;28;19950;-84
2023/05/04 05:31:41;;;;;;;;;;;;;;;8.70;100.00;96570.00;5030227;28;19953;-84
2023/05/04 05:34:08;;;;;;;;;;;;;;;8.65;100.00;96567.97;5012221;28;19966;-83
2023/05/04 05:36:34;;;;;;;;;;;;;;;8.59;100.00;96573.38;5012031;28;19950;-83
2023/05/04 05:39:01;;;;;;;;;;;;;;;8.62;100.00;96570.25;5013742;28;19958;-83
2023/05/04 05:41:29;;;;;;;;;;;;;;;8.63;100.00;96571.91;5007921;28;19962;-83
2023/05/04 05:43:56;;;;;;;;;;;;;;;8.68;100.00;96561.31;5006158;28;19971;-84
2023/05/04 05:46:23;;;;;;;;;;;;;;;8.68;100.00;96564.00;5013319;28;19972;-84
2023/05/04 05:48:50;;;;;;;;;;;;;;;8.67;100.00;96570.47;5042777;28;19959;-84
2023/05/04 05:51:17;;;;;;;;;;;;;;;8.71;100.00;96563.59;5010474;28;20013;-83
2023/05/04 05:53:45;;;;;;;;;;;;;;;8.74;100.00;96560.47;5011160;28;19963;-84
2023/05/04 05:56:13;;;;;;;;;;;;;;;8.83;100.00;96575.38;5012538;28;19957;-84
2023/05/04 05:58:42;;;;;;;;;;;;;;;8.88;100.00;96562.06;5002440;28;19956;-84
2023/05/04 06:01:08;;;;;;;;;;;;;;;8.90;100.00;96556.47;5006276;28;19969;-84
2023/05/04 06:03:35;;;;;;;;;;;;;;;9.09;100.00;96550.16;5006841;28;19954;-84
2023/05/04 06:06:02;;;;;;;;;;;;;;;9.00;100.00;96554.97;5021256;28;19990;-84
2023/05/04 06:08:29;;;;;;;;;;;;;;;9.05;100.00;96549.75;5032142;28;19962;-84
2023/05/04 06:10:56;;;;;;;;;;;;;;;9.05;100.00;96557.84;5015097;28;19961;-84
2023/05/04 06:13:23;;;;;;;;;;;;;;;9.06;100.00;96562.19;5045555;28;19950;-83
2023/05/04 06:15:54;;;;;;;;;;;;;;;9.04;100.00;96558.88;5015995;28;19966;-84
2023/05/04 06:18:21;;;;;;;;;;;;;;;9.02;100.00;96554.75;5009559;28;19951;-84
2023/05/04 06:20:48;;;;;;;;;;;;;;;8.95;100.00;96553.94;5019538;28;20298;-84
2023/05/04 06:23:15;;;;;;;;;;;;;;;8.90;100.00;96554.59;5031086;28;19950;-83
2023/05/04 06:25:42;;;;;;;;;;;;;;;8.82;100.00;96551.34;5014677;28;19947;-84
2023/05/04 06:28:08;;;;;;;;;;;;;;;8.81;100.00;96552.38;5030006;28;19953;-84
2023/05/04 06:30:35;;;;;;;;;;;;;;;8.80;100.00;96559.63;5013597;28;19951;-83
2023/05/04 06:33:04;;;;;;;;;;;;;;;8.80;100.00;96543.47;5020253;28;20000;-84
2023/05/04 06:35:31;;;;;;;;;;;;;;;8.84;100.00;96550.09;5002409;28;19956;-84
2023/05/04 06:37:58;;;;;;;;;;;;;;;8.87;100.00;96546.94;5013208;28;19957;-84
2023/05/04 06:40:25;;;;;;;;;;;;;;;8.85;100.00;96540.94;5014374;28;19986;-83
2023/05/04 06:42:52;;;;;;;;;;;;;;;8.83;100.00;96539.53;5010841;28;20182;-84
2023/05/04 06:45:19;;;;;;;;;;;;;;;8.87;100.00;96535.34;5012278;28;19988;-84
2023/05/04 06:47:46;;;;;;;;;;;;;;;8.94;100.00;96539.66;5028499;28;20055;-84
2023/05/04 06:50:15;;;;;;;;;;;;;;;9.00;100.00;96543.38;5030459;28;19997;-84
2023/05/04 06:52:42;;;;;;;;;;;;;;;9.00;100.00;96540.69;5031268;28;19985;-84
2023/05/04 06:55:09;;;;;;;;;;;;;;;8.99;100.00;96539.03;5013470;28;19955;-83
2023/05/04 06:57:36;;;;;;;;;;;;;;;8.97;100.00;96539.25;5017324;28;20039;-84
2023/05/04 07:00:03;;;;;;;;;;;;;;;9.00;100.00;96540.69;5013705;28;19965;-84
2023/05/04 07:02:31;;;;;;;;;;;;;;;9.04;100.00;96523.03;5021960;28;19967;-84
2023/05/04 07:04:58;;;;;;;;;;;;;;;9.01;100.00;96527.00;5011508;28;19957;-84
2023/05/04 07:07:26;;;;;;;;;;;;;;;9.02;100.00;96523.25;5016372;28;19949;-84
2023/05/04 07:09:53;;;;;;;;;;;;;;;9.02;100.00;96519.72;5008946;28;19977;-84
2023/05/04 07:12:20;;;;;;;;;;;;;;;9.01;100.00;96515.41;5017490;28;20085;-84
2023/05/04 07:14:46;;;;;;;;;;;;;;;9.02;100.00;96512.47;5011648;28;19956;-84
2023/05/04 07:17:13;;;;;;;;;;;;;;;9.07;100.00;96515.34;5011928;28;20042;-84
2023/05/04 07:19:40;;;;;;;;;;;;;;;9.18;100.00;96507.63;5014148;28;19964;-83
2023/05/04 07:22:07;;;;;;;;;;;;;;;9.45;100.00;96509.06;5015568;28;19981;-83
2023/05/04 07:24:35;;;;;;;;;;;;;;;9.89;100.00;96513.47;5012540;28;19957;-83
2023/05/04 07:27:02;;;;;;;;;;;;;;;10.40;100.00;96507.78;5044808;28;19996;-84
2023/05/04 07:29:28;;;;;;;;;;;;;;;10.84;100.00;96505.78;5029007;28;20037;-83
2023/05/04 07:31:56;;;;;;;;;;;;;;;11.36;100.00;96513.16;5029476;28;19950;-84
2023/05/04 07:34:23;;;;;;;;;;;;;;;11.78;100.00;96515.03;5014045;28;19953;-84
2023/05/04 07:36:50;;;;;;;;;;;;;;;12.08;100.00;96515.72;5013188;28;19993;-83
2023/05/04 07:39:17;;;;;;;;;;;;;;;12.44;100.00;96517.38;5043365;28;19956;-84
2023/05/04 07:41:45;;;;;;;;;;;;;;;12.63;100.00;96521.56;5010827;28;19987;-83
2023/05/04 07:44:12;;;;;;;;;;;;;;;12.95;100.00;96515.72;5013101;28;19962;-84
2023/05/04 07:46:38;;;;;;;;;;;;;;;13.31;100.00;96515.38;5010806;28;19954;-83
2023/05/04 07:49:05;;;;;;;;;;;;;;;13.77;100.00;96516.19;5005445;28;19957;-83
2023/05/04 07:51:32;;;;;;;;;;;;;;;14.18;97.87;96521.16;5007217;28;20045;-84
2023/05/04 07:53:59;;;;;;;;;;;;;;;14.49;98.14;96508.06;5043130;28;19961;-84
2023/05/04 07:56:26;;;;;;;;;;;;;;;14.81;98.28;96505.47;5012356;28;19980;-83
2023/05/04 07:58:54;;;;;;;;;;;;;;;15.11;98.98;96511.28;5014932;28;20215;-84
2023/05/04 08:01:21;;;;;;;;;;;;;;;15.52;95.93;96509.81;5043892;28;19971;-83
2023/05/04 08:03:48;;;;;;;;;;;;;;;15.45;94.21;96512.75;5028062;28;19953;-84
2023/05/04 08:06:15;;;;;;;;;;;;;;;15.77;91.53;96512.81;5011350;28;19964;-84
2023/05/04 08:08:43;;;;;;;;;;;;;;;15.96;88.29;96501.53;5013370;28;20028;-84
2023/05/04 08:11:12;;;;;;;;;;;;;;;16.21;87.50;96509.88;5013619;28;19959;-83
2023/05/04 08:13:40;;;;;;;;;;;;;;;16.43;85.93;96504.28;5045954;28;20000;-84
2023/05/04 08:16:08;;;;;;;;;;;;;;;16.51;80.60;96504.63;5025128;28;19950;-83
2023/05/04 08:18:35;;;;;;;;;;;;;;;16.66;78.61;96501.19;5013377;28;20009;-83
2023/05/04 08:21:03;;;;;;;;;;;;;;;16.89;77.37;96491.75;5009828;28;20019;-83
2023/05/04 08:23:31;;;;;;;;;;;;;;;17.09;78.63;96496.47;5027760;28;20006;-83
2023/05/04 08:25:58;;;;;;;;;;;;;;;17.19;77.73;96489.13;5013525;28;19988;-83
2023/05/04 08:28:25;;;;;;;;;;;;;;;17.32;77.71;96483.16;5028262;28;19963;-83
2023/05/04 08:30:52;;;;;;;;;;;;;;;17.39;79.19;96497.38;5044812;28;19961;-83
2023/05/04 08:33:20;;;;;;;;;;;;;;;17.37;79.89;96491.34;5009304;28;20163;-83
2023/05/04 08:35:47;;;;;;;;;;;;;;;17.48;79.28;96491.38;5044718;28;19960;-83
2023/05/04 08:38:14;;;;;;;;;;;;;;;17.45;77.31;96491.91;5012673;28;19947;-84
2023/05/04 08:40:42;;;;;;;;;;;;;;;17.48;77.97;96492.19;5010736;28;19952;-83
2023/05/04 08:43:09;;;;;;;;;;;;;;;17.72;77.52;96492.53;5010326;28;19979;-83
2023/05/04 08:45:37;;;;;;;;;;;;;;;17.94;74.90;96493.09;5007390;28;19956;-83
2023/05/04 08:48:04;;;;;;;;;;;;;;;18.13;72.96;96496.06;5008027;28;19951;-84
2023/05/04 08:50:34;;;;;;;;;;;;;;;18.19;73.80;96494.19;5025809;28;20050;-83
2023/05/04 08:53:02;;;;;;;;;;;;;;;18.34;70.86;96494.97;5011701;28;19947;-84
2023/05/04 08:55:30;;;;;;;;;;;;;;;18.34;71.68;96484.03;5013274;28;19983;-84
2023/05/04 08:57:59;;;;;;;;;;;;;;;18.34;69.03;96484.03;5014449;28;19946;-83
2023/05/04 09:00:26;;;;;;;;;;;;;;;18.43;70.78;96476.09;5011848;28;20063;-83
2023/05/04 09:02:53;;;;;;;;;;;;;;;18.56;67.68;96480.97;5007297;28;20039;-84
2023/05/04 09:05:21;;;;;;;;;;;;;;;18.12;68.85;96481.59;5016076;28;20062;-84
2023/05/04 09:07:51;;;;;;;;;;;;;;;18.43;66.99;96478.84;5017807;28;19954;-84
2023/05/04 09:10:18;;;;;;;;;;;;;;;18.49;68.46;96477.72;5032529;28;19953;-84
2023/05/04 09:12:45;;;;;;;;;;;;;;;18.63;67.66;96476.06;5019110;28;19956;-84
2023/05/04 09:15:16;;;;;;;;;;;;;;;18.85;68.02;96476.53;5012014;28;19949;-84
2023/05/04 09:17:43;;;;;;;;;;;;;;;19.05;64.60;96474.84;5021782;28;19957;-83
2023/05/04 09:20:10;;;;;;;;;;;;;;;19.28;65.42;96479.63;5016467;28;19973;-84
2023/05/04 09:22:37;;;;;;;;;;;;;;;19.16;63.97;96470.91;5008719;28;19961;-83
2023/05/04 09:25:10;;;;;;;;;;;;;;;18.75;66.37;96470.28;5030205;28;19954;-84
2023/05/04 09:27:38;;;;;;;;;;;;;;;18.91;66.59;96469.13;5010645;28;19999;-84
2023/05/04 09:30:05;;;;;;;;;;;;;;;19.06;63.68;96458.09;5014607;28;19954;-83
2023/05/04 09:32:35;;;;;;;;;;;;;;;19.13;62.50;96460.56;5046844;28;19947;-83
2023/05/04 09:35:02;;;;;;;;;;;;;;;19.29;63.33;96459.38;5032833;28;19946;-84
2023/05/04 09:37:30;;;;;;;;;;;;;;;19.38;62.05;96460.41;5013614;28;19979;-84
2023/05/04 09:39:58;;;;;;;;;;;;;;;19.58;61.99;96445.78;5004222;28;19951;-84
2023/05/04 09:42:27;;;;;;;;;;;;;;;19.74;59.99;96443.72;5013535;28;20027;-83
2023/05/04 09:45:00;;;;;;;;;;;;;;;19.85;55.96;96439.81;5018274;28;20022;-83
2023/05/04 09:47:34;;;;;;;;;;;;;;;20.03;57.07;96439.13;5026250;28;19949;-83
2023/05/04 09:50:11;;;;;;;;;;;;;;;20.22;57.76;96448.25;5013369;28;20144;-83
2023/05/04 09:52:38;;;;;;;;;;;;;;;20.11;57.93;96441.22;5011635;28;19959;-83
2023/05/04 09:55:06;;;;;;;;;;;;;;;20.23;57.53;96447.16;5008367;28;19948;-83
2023/05/04 09:57:34;;;;;;;;;;;;;;;20.34;56.48;96429.50;5007306;28;19952;-84
2023/05/04 10:00:01;;;;;;;;;;;;;;;20.49;56.11;96439.53;5018583;28;19952;-83
2023/05/04 10:02:33;;;;;;;;;;;;;;;20.58;56.27;96425.97;5031877;28;20013;-84
2023/05/04 10:05:00;;;;;;;;;;;;;;;20.63;54.20;96434.97;5011197;28;19956;-84
2023/05/04 10:07:30;;;;;;;;;;;;;;;20.67;52.83;96433.25;5010195;28;20017;-83
2023/05/04 10:09:58;;;;;;;;;;;;;;;20.81;53.51;96436.13;5026510;28;19973;-83
2023/05/04 10:12:24;;;;;;;;;;;;;;;21.01;53.85;96430.34;5016364;28;19949;-84
2023/05/04 10:14:53;;;;;;;;;;;;;;;21.11;53.49;96427.47;5015143;28;19961;-84
2023/05/04 10:17:27;;;;;;;;;;;;;;;21.11;53.68;96430.22;5010998;28;19956;-83
2023/05/04 10:20:03;;;;;;;;;;;;;;;21.11;54.48;96430.22;5043749;28;19959;-84
2023/05/04 10:22:38;;;;;;;;;;;;;;;20.86;54.43;96432.50;5012082;28;20019;-84
2023/05/04 10:25:18;;;;;;;;;;;;;;;20.94;53.68;96429.91;5016942;28;19952;-84
2023/05/04 10:27:57;;;;;;;;;;;;;;;20.96;54.77;96427.69;5020013;28;20005;-84
2023/05/04 10:30:25;;;;;;;;;;;;;;;20.87;52.84;96423.97;5011829;28;19959;-84
2023/05/04 10:32:56;;;;;;;;;;;;;;;20.87;50.58;96429.44;5027270;28;19950;-84
2023/05/04 10:35:23;;;;;;;;;;;;;;;20.93;51.81;96411.81;5046765;28;20126;-84
2023/05/04 10:37:54;;;;;;;;;;;;;;;21.07;53.22;96412.72;5012290;28;19958;-84
2023/05/04 10:40:32;;;;;;;;;;;;;;;21.25;50.94;96402.91;5008811;28;19950;-84
2023/05/04 10:42:59;;;;;;;;;;;;;;;21.52;51.96;96408.50;5029736;28;19976;-84
2023/05/04 10:45:36;;;;;;;;;;;;;;;21.57;53.58;96410.38;5045105;28;19952;-84
2023/05/04 10:48:03;;;;;;;;;;;;;;;21.42;49.75;96399.63;5012623;28;19950;-84
2023/05/04 10:50:40;;;;;;;;;;;;;;;21.59;50.53;96402.66;5010024;28;19949;-84
2023/05/04 10:53:07;;;;;;;;;;;;;;;21.80;50.43;96398.44;5014199;28;19947;-84
2023/05/04 10:55:38;;;;;;;;;;;;;;;21.82;50.07;96401.72;5016245;28;19953;-84
2023/05/04 10:58:06;;;;;;;;;;;;;;;21.79;51.10;96396.00;5027867;28;19952;-84
2023/05/04 11:00:38;;;;;;;;;;;;;;;21.75;50.65;96390.31;5015961;28;19957;-84
2023/05/04 11:03:07;;;;;;;;;;;;;;;21.74;51.09;96387.84;5011019;28;19959;-84
2023/05/04 11:05:40;;;;;;;;;;;;;;;21.85;51.34;96386.56;5028002;28;20072;-84
2023/05/04 11:08:14;;;;;;;;;;;;;;;21.95;50.98;96386.38;4997704;28;20104;-84
2023/05/04 11:10:41;;;;;;;;;;;;;;;21.83;51.87;96375.88;5005542;28;19957;-84
2023/05/04 11:13:10;;;;;;;;;;;;;;;21.75;53.57;96370.25;5008795;28;19947;-84
2023/05/04 11:15:45;;;;;;;;;;;;;;;21.75;52.80;96368.31;5011211;28;20042;-84
2023/05/04 11:18:11;;;;;;;;;;;;;;;21.91;52.56;96366.13;5018873;28;19946;-84
2023/05/04 11:20:38;;;;;;;;;;;;;;;22.01;54.94;96360.47;5012883;28;20008;-84
2023/05/04 11:23:08;;;;;;;;;;;;;;;22.12;52.90;96361.06;5006099;28;19958;-84
2023/05/04 11:25:38;;;;;;;;;;;;;;;22.41;53.13;96367.13;5026224;28;20513;-84
2023/05/04 11:28:05;;;;;;;;;;;;;;;22.42;51.81;96363.25;5028120;28;19955;-84
2023/05/04 11:30:33;;;;;;;;;;;;;;;22.19;53.07;96361.53;5018278;28;19978;-84
2023/05/04 11:33:03;;;;;;;;;;;;;;;22.44;53.87;96361.03;5000389;28;19947;-84
2023/05/04 11:35:31;;;;;;;;;;;;;;;22.60;52.79;96356.84;5013731;28;19975;-84
2023/05/04 11:37:57;;;;;;;;;;;;;;;22.85;54.78;96350.00;5014931;28;19975;-84
2023/05/04 11:40:25;;;;;;;;;;;;;;;22.74;54.07;96337.59;5044477;28;19951;-84
2023/05/04 11:42:53;;;;;;;;;;;;;;;22.61;54.33;96333.72;5010357;28;19982;-83
2023/05/04 11:45:21;;;;;;;;;;;;;;;22.52;54.36;96327.28;5014970;28;19959;-84
2023/05/04 11:47:48;;;;;;;;;;;;;;;22.19;54.22;96323.84;5006116;28;19946;-84
2023/05/04 11:50:17;;;;;;;;;;;;;;;22.25;55.30;96321.78;5027282;28;19989;-84
2023/05/04 11:52:44;;;;;;;;;;;;;;;22.49;54.85;96324.31;5015524;28;19950;-83
2023/05/04 11:55:12;;;;;;;;;;;;;;;22.82;56.36;96325.03;5023517;28;19949;-84
2023/05/04 11:57:39;;;;;;;;;;;;;;;22.99;54.74;96322.44;5011135;28;20001;-83
2023/05/04 12:00:07;;;;;;;;;;;;;;;22.89;54.01;96319.91;5012732;28;19958;-84
2023/05/04 12:02:34;;;;;;;;;;;;;;;23.17;53.22;96326.97;5013679;28;19959;-84
2023/05/04 12:05:00;;;;;;;;;;;;;;;23.16;54.15;96328.09;5016436;28;19955;-84
2023/05/04 12:07:29;;;;;;;;;;;;;;;23.34;55.51;96326.31;5015054;28;19952;-84
2023/05/04 12:09:56;;;;;;;;;;;;;;;23.34;53.65;96327.13;5013035;28;19973;-83
2023/05/04 12:12:22;;;;;;;;;;;;;;;23.49;54.58;96325.16;5012039;28;19944;-84
2023/05/04 12:14:50;;;;;;;;;;;;;;;23.62;54.99;96332.56;5042967;28;19986;-84
2023/05/04 12:17:18;;;;;;;;;;;;;;;23.31;52.99;96318.66;5026951;28;20046;-84
2023/05/04 12:19:48;;;;;;;;;;;;;;;23.36;54.08;96313.84;5023507;28;19958;-84
2023/05/04 12:22:15;;;;;;;;;;;;;;;23.57;53.83;96318.88;5005374;28;19950;-84
2023/05/04 12:24:43;;;;;;;;;;;;;;;23.27;55.78;96310.22;5010070;28;20274;-84
2023/05/04 12:27:13;;;;;;;;;;;;;;;23.25;55.88;96312.47;5028496;28;19962;-84
2023/05/04 12:29:40;;;;;;;;;;;;;;;23.33;55.50;96308.97;5027208;28;19955;-84
2023/05/04 12:32:07;;;;;;;;;;;;;;;23.54;55.25;96309.31;5007816;28;19951;-84
2023/05/04 12:34:34;;;;;;;;;;;;;;;23.69;53.67;96306.16;5013466;28;19977;-84
2023/05/04 12:37:01;;;;;;;;;;;;;;;24.01;51.19;96316.06;5028685;28;19952;-84
2023/05/04 12:39:30;;;;;;;;;;;;;;;24.01;48.90;96307.78;5009642;28;19963;-84
2023/05/04 12:41:58;;;;;;;;;;;;;;;24.25;49.21;96306.63;5032697;28;19959;-84
2023/05/04 12:44:26;;;;;;;;;;;;;;;24.39;49.18;96296.31;5017462;28;19963;-84
2023/05/04 12:46:52;;;;;;;;;;;;;;;24.52;49.08;96290.66;5047728;28;19958;-83
2023/05/04 12:49:19;;;;;;;;;;;;;;;24.69;48.70;96284.38;5031701;28;19952;-84